sensor_id;sensor_type;location;lat;lon;timestamp;P1;durP1;ratioP1;P2;durP2;ratioP2
18677;SDS011;9469;51.114;13.914;2023-01-29T00:02:42;18.13;;;11.30;;
18677;SDS011;9469;51.114;13.914;2023-01-29T00:07:49;15.30;;;9.77;;
18677;SDS011;9469;51.114;13.914;2023-01-29T00:12:54;16.67;;;10.63;;
18677;SDS011;9469;51.114;13.914;2023-01-29T00:18:00;15.73;;;10.57;;
18677;SDS011;9469;51.114;13.914;2023-01-29T00:23:07;15.97;;;10.63;;
18677;SDS011;9469;51.114;13.914;2023-01-29T00:28:13;16.27;;;11.47;;
18677;SDS011;9469;51.114;13.914;2023-01-29T00:33:18;14.77;;;9.70;;
18677;SDS011;9469;51.114;13.914;2023-01-29T00:38:26;14.57;;;10.27;;
18677;SDS011;9469;51.114;13.914;2023-01-29T00:43:31;12.63;;;9.17;;
18677;SDS011;9469;51.114;13.914;2023-01-29T00:48:48;12.47;;;9.37;;
18677;SDS011;9469;51.114;13.914;2023-01-29T00:53:56;11.90;;;8.97;;
18677;SDS011;9469;51.114;13.914;2023-01-29T00:59:01;12.93;;;8.97;;
18677;SDS011;9469;51.114;13.914;2023-01-29T01:04:07;14.33;;;9.50;;
18677;SDS011;9469;51.114;13.914;2023-01-29T01:09:19;14.27;;;9.03;;
18677;SDS011;9469;51.114;13.914;2023-01-29T01:14:37;11.17;;;7.97;;
18677;SDS011;9469;51.114;13.914;2023-01-29T01:19:43;11.73;;;8.83;;
18677;SDS011;9469;51.114;13.914;2023-01-29T01:24:51;11.67;;;7.97;;
18677;SDS011;9469;51.114;13.914;2023-01-29T01:29:56;10.13;;;7.20;;
18677;SDS011;9469;51.114;13.914;2023-01-29T01:35:01;8.80;;;7.20;;
18677;SDS011;9469;51.114;13.914;2023-01-29T01:40:10;10.03;;;7.03;;
18677;SDS011;9469;51.114;13.914;2023-01-29T01:45:21;12.90;;;9.13;;
18677;SDS011;9469;51.114;13.914;2023-01-29T01:50:30;10.33;;;7.37;;
18677;SDS011;9469;51.114;13.914;2023-01-29T01:55:44;10.07;;;8.17;;
18677;SDS011;9469;51.114;13.914;2023-01-29T02:00:52;12.97;;;7.60;;
18677;SDS011;9469;51.114;13.914;2023-01-29T02:05:58;11.20;;;8.30;;
18677;SDS011;9469;51.114;13.914;2023-01-29T02:11:19;11.40;;;8.60;;
18677;SDS011;9469;51.114;13.914;2023-01-29T02:16:24;10.30;;;8.43;;
18677;SDS011;9469;51.114;13.914;2023-01-29T02:21:35;11.10;;;8.17;;
18677;SDS011;9469;51.114;13.914;2023-01-29T02:27:05;11.10;;;7.90;;
18677;SDS011;9469;51.114;13.914;2023-01-29T02:32:18;10.63;;;8.60;;
18677;SDS011;9469;51.114;13.914;2023-01-29T02:37:31;10.60;;;8.97;;
18677;SDS011;9469;51.114;13.914;2023-01-29T02:42:43;16.63;;;9.97;;
18677;SDS011;9469;51.114;13.914;2023-01-29T02:47:59;11.33;;;9.13;;
18677;SDS011;9469;51.114;13.914;2023-01-29T02:53:07;10.53;;;8.83;;
18677;SDS011;9469;51.114;13.914;2023-01-29T02:58:19;13.67;;;9.23;;
18677;SDS011;9469;51.114;13.914;2023-01-29T03:03:32;11.37;;;10.00;;
18677;SDS011;9469;51.114;13.914;2023-01-29T03:08:40;11.70;;;9.13;;
18677;SDS011;9469;51.114;13.914;2023-01-29T03:13:54;11.70;;;9.33;;
18677;SDS011;9469;51.114;13.914;2023-01-29T03:19:07;11.93;;;9.50;;
18677;SDS011;9469;51.114;13.914;2023-01-29T03:24:17;17.27;;;10.00;;
18677;SDS011;9469;51.114;13.914;2023-01-29T03:29:39;14.93;;;9.40;;
18677;SDS011;9469;51.114;13.914;2023-01-29T03:35:10;11.30;;;9.40;;
18677;SDS011;9469;51.114;13.914;2023-01-29T03:40:21;11.00;;;9.10;;
18677;SDS011;9469;51.114;13.914;2023-01-29T03:45:27;12.13;;;8.70;;
18677;SDS011;9469;51.114;13.914;2023-01-29T03:50:41;14.30;;;10.17;;
18677;SDS011;9469;51.114;13.914;2023-01-29T03:55:57;12.47;;;8.87;;
18677;SDS011;9469;51.114;13.914;2023-01-29T04:01:09;11.60;;;9.67;;
18677;SDS011;9469;51.114;13.914;2023-01-29T04:06:22;14.60;;;10.53;;
18677;SDS011;9469;51.114;13.914;2023-01-29T04:11:37;11.63;;;9.90;;
18677;SDS011;9469;51.114;13.914;2023-01-29T04:16:48;12.73;;;10.17;;
18677;SDS011;9469;51.114;13.914;2023-01-29T04:22:08;14.47;;;10.30;;
18677;SDS011;9469;51.114;13.914;2023-01-29T04:27:22;14.33;;;10.07;;
18677;SDS011;9469;51.114;13.914;2023-01-29T04:32:37;17.23;;;10.87;;
18677;SDS011;9469;51.114;13.914;2023-01-29T04:37:55;13.67;;;10.23;;
18677;SDS011;9469;51.114;13.914;2023-01-29T04:43:08;17.63;;;11.10;;
18677;SDS011;9469;51.114;13.914;2023-01-29T04:48:20;13.33;;;10.17;;
18677;SDS011;9469;51.114;13.914;2023-01-29T04:53:34;14.80;;;11.13;;
18677;SDS011;9469;51.114;13.914;2023-01-29T04:58:45;15.53;;;10.67;;
18677;SDS011;9469;51.114;13.914;2023-01-29T05:03:54;13.33;;;10.10;;
18677;SDS011;9469;51.114;13.914;2023-01-29T05:09:04;16.93;;;10.67;;
18677;SDS011;9469;51.114;13.914;2023-01-29T05:14:10;12.93;;;10.40;;
18677;SDS011;9469;51.114;13.914;2023-01-29T05:19:18;14.87;;;11.60;;
18677;SDS011;9469;51.114;13.914;2023-01-29T05:24:26;14.10;;;10.30;;
18677;SDS011;9469;51.114;13.914;2023-01-29T05:29:31;15.70;;;10.73;;
18677;SDS011;9469;51.114;13.914;2023-01-29T05:34:36;15.90;;;11.23;;
18677;SDS011;9469;51.114;13.914;2023-01-29T05:39:44;15.27;;;10.90;;
18677;SDS011;9469;51.114;13.914;2023-01-29T05:44:49;18.17;;;11.50;;
18677;SDS011;9469;51.114;13.914;2023-01-29T05:49:54;16.40;;;11.20;;
18677;SDS011;9469;51.114;13.914;2023-01-29T05:55:01;14.20;;;10.87;;
18677;SDS011;9469;51.114;13.914;2023-01-29T06:00:07;13.60;;;10.07;;
18677;SDS011;9469;51.114;13.914;2023-01-29T06:05:14;13.90;;;10.03;;
18677;SDS011;9469;51.114;13.914;2023-01-29T06:10:21;20.33;;;11.53;;
18677;SDS011;9469;51.114;13.914;2023-01-29T06:15:26;15.77;;;11.07;;
18677;SDS011;9469;51.114;13.914;2023-01-29T06:20:32;14.93;;;11.20;;
18677;SDS011;9469;51.114;13.914;2023-01-29T06:25:39;17.47;;;12.03;;
18677;SDS011;9469;51.114;13.914;2023-01-29T06:30:44;16.00;;;11.60;;
18677;SDS011;9469;51.114;13.914;2023-01-29T06:35:53;16.97;;;11.43;;
18677;SDS011;9469;51.114;13.914;2023-01-29T06:41:06;17.27;;;11.60;;
18677;SDS011;9469;51.114;13.914;2023-01-29T06:46:12;16.00;;;11.63;;
18677;SDS011;9469;51.114;13.914;2023-01-29T06:51:17;15.67;;;11.33;;
18677;SDS011;9469;51.114;13.914;2023-01-29T06:56:26;16.70;;;11.27;;
18677;SDS011;9469;51.114;13.914;2023-01-29T07:01:32;13.47;;;10.73;;
18677;SDS011;9469;51.114;13.914;2023-01-29T07:06:37;12.87;;;9.90;;
18677;SDS011;9469;51.114;13.914;2023-01-29T07:11:45;16.90;;;11.93;;
18677;SDS011;9469;51.114;13.914;2023-01-29T07:16:51;15.30;;;9.47;;
18677;SDS011;9469;51.114;13.914;2023-01-29T07:21:55;15.27;;;11.40;;
18677;SDS011;9469;51.114;13.914;2023-01-29T07:27:05;15.97;;;10.70;;
18677;SDS011;9469;51.114;13.914;2023-01-29T07:32:10;13.97;;;10.37;;
18677;SDS011;9469;51.114;13.914;2023-01-29T07:37:16;12.30;;;10.07;;
18677;SDS011;9469;51.114;13.914;2023-01-29T07:42:24;17.77;;;10.90;;
18677;SDS011;9469;51.114;13.914;2023-01-29T07:47:29;15.37;;;10.67;;
18677;SDS011;9469;51.114;13.914;2023-01-29T07:52:34;15.80;;;11.10;;
18677;SDS011;9469;51.114;13.914;2023-01-29T07:57:42;15.20;;;11.50;;
18677;SDS011;9469;51.114;13.914;2023-01-29T08:02:48;13.07;;;10.93;;
18677;SDS011;9469;51.114;13.914;2023-01-29T08:07:54;15.30;;;11.27;;
18677;SDS011;9469;51.114;13.914;2023-01-29T08:13:09;14.53;;;10.93;;
18677;SDS011;9469;51.114;13.914;2023-01-29T08:18:15;13.33;;;10.23;;
18677;SDS011;9469;51.114;13.914;2023-01-29T08:23:20;14.33;;;9.73;;
18677;SDS011;9469;51.114;13.914;2023-01-29T08:28:27;17.07;;;11.10;;
18677;SDS011;9469;51.114;13.914;2023-01-29T08:33:32;15.30;;;11.10;;
18677;SDS011;9469;51.114;13.914;2023-01-29T08:38:40;25.10;;;11.63;;
18677;SDS011;9469;51.114;13.914;2023-01-29T08:43:48;19.73;;;11.37;;
18677;SDS011;9469;51.114;13.914;2023-01-29T08:48:54;15.27;;;11.60;;
18677;SDS011;9469;51.114;13.914;2023-01-29T08:53:59;16.57;;;12.23;;
18677;SDS011;9469;51.114;13.914;2023-01-29T08:59:08;20.73;;;11.97;;
18677;SDS011;9469;51.114;13.914;2023-01-29T09:04:13;14.93;;;10.47;;
18677;SDS011;9469;51.114;13.914;2023-01-29T09:09:18;18.30;;;11.43;;
18677;SDS011;9469;51.114;13.914;2023-01-29T09:14:26;13.53;;;9.90;;
18677;SDS011;9469;51.114;13.914;2023-01-29T09:19:31;16.30;;;11.73;;
18677;SDS011;9469;51.114;13.914;2023-01-29T09:24:36;17.73;;;11.80;;
18677;SDS011;9469;51.114;13.914;2023-01-29T09:29:46;14.07;;;10.40;;
18677;SDS011;9469;51.114;13.914;2023-01-29T09:34:51;20.60;;;11.70;;
18677;SDS011;9469;51.114;13.914;2023-01-29T09:39:56;17.10;;;12.30;;
18677;SDS011;9469;51.114;13.914;2023-01-29T09:45:05;14.83;;;10.63;;
18677;SDS011;9469;51.114;13.914;2023-01-29T09:50:22;18.60;;;13.37;;
18677;SDS011;9469;51.114;13.914;2023-01-29T09:55:42;13.60;;;10.23;;
18677;SDS011;9469;51.114;13.914;2023-01-29T10:00:56;17.03;;;11.93;;
18677;SDS011;9469;51.114;13.914;2023-01-29T10:06:14;13.23;;;11.63;;
18677;SDS011;9469;51.114;13.914;2023-01-29T10:11:31;27.03;;;13.67;;
18677;SDS011;9469;51.114;13.914;2023-01-29T10:16:48;15.97;;;11.57;;
18677;SDS011;9469;51.114;13.914;2023-01-29T10:22:06;16.73;;;11.87;;
18677;SDS011;9469;51.114;13.914;2023-01-29T10:27:24;23.87;;;11.93;;
18677;SDS011;9469;51.114;13.914;2023-01-29T10:32:39;15.70;;;10.93;;
18677;SDS011;9469;51.114;13.914;2023-01-29T10:37:47;18.77;;;11.20;;
18677;SDS011;9469;51.114;13.914;2023-01-29T10:42:57;17.80;;;11.10;;
18677;SDS011;9469;51.114;13.914;2023-01-29T10:53:46;13.43;;;10.93;;
18677;SDS011;9469;51.114;13.914;2023-01-29T10:59:02;22.03;;;12.23;;
18677;SDS011;9469;51.114;13.914;2023-01-29T11:04:15;17.97;;;11.50;;
18677;SDS011;9469;51.114;13.914;2023-01-29T11:09:25;20.17;;;12.50;;
18677;SDS011;9469;51.114;13.914;2023-01-29T11:14:36;29.60;;;16.63;;
18677;SDS011;9469;51.114;13.914;2023-01-29T11:19:51;16.53;;;12.67;;
18677;SDS011;9469;51.114;13.914;2023-01-29T11:25:08;19.37;;;12.27;;
18677;SDS011;9469;51.114;13.914;2023-01-29T11:30:21;18.17;;;12.07;;
18677;SDS011;9469;51.114;13.914;2023-01-29T11:35:30;16.30;;;11.63;;
18677;SDS011;9469;51.114;13.914;2023-01-29T11:40:37;22.30;;;13.43;;
18677;SDS011;9469;51.114;13.914;2023-01-29T11:45:44;18.67;;;12.20;;
18677;SDS011;9469;51.114;13.914;2023-01-29T11:50:54;26.87;;;13.13;;
18677;SDS011;9469;51.114;13.914;2023-01-29T11:56:01;15.63;;;12.23;;
18677;SDS011;9469;51.114;13.914;2023-01-29T12:01:29;13.80;;;10.87;;
18677;SDS011;9469;51.114;13.914;2023-01-29T12:06:39;14.37;;;11.13;;
18677;SDS011;9469;51.114;13.914;2023-01-29T12:11:49;16.50;;;11.10;;
18677;SDS011;9469;51.114;13.914;2023-01-29T12:16:55;13.80;;;10.83;;
18677;SDS011;9469;51.114;13.914;2023-01-29T12:22:13;16.63;;;10.07;;
18677;SDS011;9469;51.114;13.914;2023-01-29T12:27:24;14.80;;;11.23;;
18677;SDS011;9469;51.114;13.914;2023-01-29T12:32:38;13.47;;;10.33;;
18677;SDS011;9469;51.114;13.914;2023-01-29T12:37:56;15.07;;;9.83;;
18677;SDS011;9469;51.114;13.914;2023-01-29T12:43:11;13.13;;;10.23;;
18677;SDS011;9469;51.114;13.914;2023-01-29T12:48:20;18.13;;;10.67;;
18677;SDS011;9469;51.114;13.914;2023-01-29T12:53:32;14.03;;;9.97;;
18677;SDS011;9469;51.114;13.914;2023-01-29T12:58:46;17.03;;;10.60;;
18677;SDS011;9469;51.114;13.914;2023-01-29T13:03:54;12.33;;;10.07;;
18677;SDS011;9469;51.114;13.914;2023-01-29T13:09:08;14.07;;;11.37;;
18677;SDS011;9469;51.114;13.914;2023-01-29T13:14:21;15.47;;;10.93;;
18677;SDS011;9469;51.114;13.914;2023-01-29T13:19:30;14.67;;;10.87;;
18677;SDS011;9469;51.114;13.914;2023-01-29T13:24:42;18.57;;;11.43;;
18677;SDS011;9469;51.114;13.914;2023-01-29T13:30:04;15.60;;;11.23;;
18677;SDS011;9469;51.114;13.914;2023-01-29T13:35:11;25.50;;;11.53;;
18677;SDS011;9469;51.114;13.914;2023-01-29T13:40:23;15.60;;;10.73;;
18677;SDS011;9469;51.114;13.914;2023-01-29T13:45:32;14.97;;;10.67;;
18677;SDS011;9469;51.114;13.914;2023-01-29T13:50:40;15.43;;;10.30;;
18677;SDS011;9469;51.114;13.914;2023-01-29T13:55:49;17.67;;;11.33;;
18677;SDS011;9469;51.114;13.914;2023-01-29T14:00:54;18.27;;;10.30;;
18677;SDS011;9469;51.114;13.914;2023-01-29T14:06:03;16.30;;;9.93;;
18677;SDS011;9469;51.114;13.914;2023-01-29T14:16:39;15.40;;;10.40;;
18677;SDS011;9469;51.114;13.914;2023-01-29T14:21:47;13.67;;;10.27;;
18677;SDS011;9469;51.114;13.914;2023-01-29T14:26:57;15.50;;;10.40;;
18677;SDS011;9469;51.114;13.914;2023-01-29T14:32:10;13.03;;;10.10;;
18677;SDS011;9469;51.114;13.914;2023-01-29T14:37:25;12.00;;;8.93;;
18677;SDS011;9469;51.114;13.914;2023-01-29T14:42:38;15.67;;;10.50;;
18677;SDS011;9469;51.114;13.914;2023-01-29T14:47:57;14.97;;;9.83;;
18677;SDS011;9469;51.114;13.914;2023-01-29T14:53:09;14.23;;;10.47;;
18677;SDS011;9469;51.114;13.914;2023-01-29T14:58:29;15.93;;;9.50;;
18677;SDS011;9469;51.114;13.914;2023-01-29T15:03:47;16.13;;;10.50;;
18677;SDS011;9469;51.114;13.914;2023-01-29T15:09:01;20.07;;;11.53;;
18677;SDS011;9469;51.114;13.914;2023-01-29T15:14:23;16.63;;;11.10;;
18677;SDS011;9469;51.114;13.914;2023-01-29T15:19:36;17.23;;;10.43;;
18677;SDS011;9469;51.114;13.914;2023-01-29T15:25:00;14.17;;;10.77;;
18677;SDS011;9469;51.114;13.914;2023-01-29T15:30:13;17.13;;;10.80;;
18677;SDS011;9469;51.114;13.914;2023-01-29T15:35:25;16.57;;;10.50;;
18677;SDS011;9469;51.114;13.914;2023-01-29T15:40:34;14.47;;;10.40;;
18677;SDS011;9469;51.114;13.914;2023-01-29T15:45:41;14.40;;;10.30;;
18677;SDS011;9469;51.114;13.914;2023-01-29T15:50:49;15.43;;;10.50;;
18677;SDS011;9469;51.114;13.914;2023-01-29T15:56:03;13.90;;;9.83;;
18677;SDS011;9469;51.114;13.914;2023-01-29T16:01:14;14.93;;;11.33;;
18677;SDS011;9469;51.114;13.914;2023-01-29T16:06:21;16.37;;;11.17;;
18677;SDS011;9469;51.114;13.914;2023-01-29T16:11:27;16.83;;;10.07;;
18677;SDS011;9469;51.114;13.914;2023-01-29T16:16:35;13.37;;;9.97;;
18677;SDS011;9469;51.114;13.914;2023-01-29T16:21:40;12.10;;;8.97;;
18677;SDS011;9469;51.114;13.914;2023-01-29T16:26:52;12.57;;;9.60;;
18677;SDS011;9469;51.114;13.914;2023-01-29T16:32:12;15.87;;;10.73;;
18677;SDS011;9469;51.114;13.914;2023-01-29T16:37:20;12.53;;;9.70;;
18677;SDS011;9469;51.114;13.914;2023-01-29T16:42:31;15.37;;;8.93;;
18677;SDS011;9469;51.114;13.914;2023-01-29T16:47:43;12.07;;;8.83;;
18677;SDS011;9469;51.114;13.914;2023-01-29T16:52:53;10.73;;;8.97;;
18677;SDS011;9469;51.114;13.914;2023-01-29T16:58:02;13.27;;;9.17;;
18677;SDS011;9469;51.114;13.914;2023-01-29T17:03:16;17.47;;;11.13;;
18677;SDS011;9469;51.114;13.914;2023-01-29T17:08:23;17.03;;;10.27;;
18677;SDS011;9469;51.114;13.914;2023-01-29T17:13:34;12.30;;;9.30;;
18677;SDS011;9469;51.114;13.914;2023-01-29T17:18:45;14.33;;;9.03;;
18677;SDS011;9469;51.114;13.914;2023-01-29T17:24:01;17.73;;;10.00;;
18677;SDS011;9469;51.114;13.914;2023-01-29T17:29:10;16.63;;;10.57;;
18677;SDS011;9469;51.114;13.914;2023-01-29T17:34:20;15.60;;;8.90;;
18677;SDS011;9469;51.114;13.914;2023-01-29T17:39:25;12.00;;;8.27;;
18677;SDS011;9469;51.114;13.914;2023-01-29T17:44:30;12.50;;;8.70;;
18677;SDS011;9469;51.114;13.914;2023-01-29T17:49:38;14.23;;;7.67;;
18677;SDS011;9469;51.114;13.914;2023-01-29T17:54:45;13.23;;;9.27;;
18677;SDS011;9469;51.114;13.914;2023-01-29T17:59:52;13.17;;;8.50;;
18677;SDS011;9469;51.114;13.914;2023-01-29T18:05:00;11.27;;;8.03;;
18677;SDS011;9469;51.114;13.914;2023-01-29T18:10:10;11.30;;;8.23;;
18677;SDS011;9469;51.114;13.914;2023-01-29T18:15:17;19.37;;;7.83;;
18677;SDS011;9469;51.114;13.914;2023-01-29T18:20:27;19.03;;;9.10;;
18677;SDS011;9469;51.114;13.914;2023-01-29T18:25:32;10.53;;;8.33;;
18677;SDS011;9469;51.114;13.914;2023-01-29T18:30:38;15.13;;;9.50;;
18677;SDS011;9469;51.114;13.914;2023-01-29T18:35:48;12.73;;;8.27;;
18677;SDS011;9469;51.114;13.914;2023-01-29T18:41:02;16.93;;;10.03;;
18677;SDS011;9469;51.114;13.914;2023-01-29T18:46:11;11.80;;;8.40;;
18677;SDS011;9469;51.114;13.914;2023-01-29T18:51:20;12.63;;;7.97;;
18677;SDS011;9469;51.114;13.914;2023-01-29T18:56:25;14.03;;;9.47;;
18677;SDS011;9469;51.114;13.914;2023-01-29T19:01:30;13.73;;;8.23;;
18677;SDS011;9469;51.114;13.914;2023-01-29T19:06:42;13.27;;;9.03;;
18677;SDS011;9469;51.114;13.914;2023-01-29T19:11:48;10.57;;;8.03;;
18677;SDS011;9469;51.114;13.914;2023-01-29T19:16:56;10.13;;;8.70;;
18677;SDS011;9469;51.114;13.914;2023-01-29T19:22:08;12.50;;;8.87;;
18677;SDS011;9469;51.114;13.914;2023-01-29T19:27:15;10.70;;;8.23;;
18677;SDS011;9469;51.114;13.914;2023-01-29T19:32:20;13.47;;;9.03;;
18677;SDS011;9469;51.114;13.914;2023-01-29T19:37:29;13.57;;;9.00;;
18677;SDS011;9469;51.114;13.914;2023-01-29T19:42:35;10.53;;;8.17;;
18677;SDS011;9469;51.114;13.914;2023-01-29T19:47:43;14.17;;;10.30;;
18677;SDS011;9469;51.114;13.914;2023-01-29T19:52:52;11.83;;;8.27;;
18677;SDS011;9469;51.114;13.914;2023-01-29T19:58:02;15.77;;;9.10;;
18677;SDS011;9469;51.114;13.914;2023-01-29T20:03:09;12.50;;;8.27;;
18677;SDS011;9469;51.114;13.914;2023-01-29T20:08:19;12.23;;;9.37;;
18677;SDS011;9469;51.114;13.914;2023-01-29T20:13:25;10.20;;;8.60;;
18677;SDS011;9469;51.114;13.914;2023-01-29T20:18:34;10.20;;;8.50;;
18677;SDS011;9469;51.114;13.914;2023-01-29T20:23:43;11.33;;;9.13;;
18677;SDS011;9469;51.114;13.914;2023-01-29T20:28:53;15.63;;;9.57;;
18677;SDS011;9469;51.114;13.914;2023-01-29T20:33:59;10.60;;;8.37;;
18677;SDS011;9469;51.114;13.914;2023-01-29T20:39:09;12.70;;;9.27;;
18677;SDS011;9469;51.114;13.914;2023-01-29T20:44:15;11.33;;;8.90;;
18677;SDS011;9469;51.114;13.914;2023-01-29T20:49:20;12.80;;;8.63;;
18677;SDS011;9469;51.114;13.914;2023-01-29T20:54:34;13.50;;;8.17;;
18677;SDS011;9469;51.114;13.914;2023-01-29T20:59:41;11.53;;;9.30;;
18677;SDS011;9469;51.114;13.914;2023-01-29T21:04:47;10.23;;;8.37;;
18677;SDS011;9469;51.114;13.914;2023-01-29T21:09:59;12.93;;;9.17;;
18677;SDS011;9469;51.114;13.914;2023-01-29T21:15:06;14.00;;;9.90;;
18677;SDS011;9469;51.114;13.914;2023-01-29T21:20:13;11.30;;;8.90;;
18677;SDS011;9469;51.114;13.914;2023-01-29T21:25:23;10.63;;;8.73;;
18677;SDS011;9469;51.114;13.914;2023-01-29T21:30:31;11.73;;;8.37;;
18677;SDS011;9469;51.114;13.914;2023-01-29T21:35:37;13.33;;;9.20;;
18677;SDS011;9469;51.114;13.914;2023-01-29T21:40:45;12.73;;;9.00;;
18677;SDS011;9469;51.114;13.914;2023-01-29T21:45:53;11.00;;;8.50;;
18677;SDS011;9469;51.114;13.914;2023-01-29T21:50:59;11.20;;;8.83;;
18677;SDS011;9469;51.114;13.914;2023-01-29T21:56:10;12.03;;;9.17;;
18677;SDS011;9469;51.114;13.914;2023-01-29T22:01:20;11.77;;;8.97;;
18677;SDS011;9469;51.114;13.914;2023-01-29T22:06:39;14.37;;;9.47;;
18677;SDS011;9469;51.114;13.914;2023-01-29T22:11:47;14.00;;;9.87;;
18677;SDS011;9469;51.114;13.914;2023-01-29T22:16:52;15.27;;;9.70;;
18677;SDS011;9469;51.114;13.914;2023-01-29T22:21:57;12.73;;;9.33;;
18677;SDS011;9469;51.114;13.914;2023-01-29T22:27:05;14.63;;;10.73;;
18677;SDS011;9469;51.114;13.914;2023-01-29T22:32:10;13.77;;;10.17;;
18677;SDS011;9469;51.114;13.914;2023-01-29T22:37:15;16.40;;;10.90;;
18677;SDS011;9469;51.114;13.914;2023-01-29T22:42:22;15.17;;;10.20;;
18677;SDS011;9469;51.114;13.914;2023-01-29T22:47:28;12.17;;;9.60;;
18677;SDS011;9469;51.114;13.914;2023-01-29T22:52:35;14.00;;;9.83;;
18677;SDS011;9469;51.114;13.914;2023-01-29T22:57:46;14.00;;;10.83;;
18677;SDS011;9469;51.114;13.914;2023-01-29T23:02:52;16.33;;;10.80;;
18677;SDS011;9469;51.114;13.914;2023-01-29T23:07:57;13.43;;;10.13;;
18677;SDS011;9469;51.114;13.914;2023-01-29T23:13:04;13.20;;;9.23;;
18677;SDS011;9469;51.114;13.914;2023-01-29T23:18:09;12.67;;;9.90;;
18677;SDS011;9469;51.114;13.914;2023-01-29T23:23:14;14.77;;;10.33;;
18677;SDS011;9469;51.114;13.914;2023-01-29T23:28:22;17.13;;;10.47;;
18677;SDS011;9469;51.114;13.914;2023-01-29T23:33:28;14.53;;;10.57;;
18677;SDS011;9469;51.114;13.914;2023-01-29T23:38:33;15.87;;;9.97;;
18677;SDS011;9469;51.114;13.914;2023-01-29T23:43:42;13.83;;;9.77;;
18677;SDS011;9469;51.114;13.914;2023-01-29T23:48:47;14.97;;;9.87;;
18677;SDS011;9469;51.114;13.914;2023-01-29T23:53:52;12.60;;;9.77;;
18677;SDS011;9469;51.114;13.914;2023-01-29T23:59:00;14.00;;;9.87;;
